Time;durP1;ratioP1;P1;durP2;ratioP2;P2;SDS_P1;SDS_P2;PMS_P1;PMS_P2;Temp;Humidity;BMP_temperature;BMP_pressure;BME280_temperature;BME280_humidity;BME280_pressure;Samples;Min_cycle;Max_cycle;Signal;HPM_P1;HPM_P2
2021/12/30 00:00:35;;;;;;;0.70;0.70;;;11.50;89.80;;;;;;4954457;28;20466;-47
2021/12/30 00:03:04;;;;;;;2.00;1.17;;;11.60;89.80;;;;;;4952639;28;20463;-47
2021/12/30 00:05:31;;;;;;;1.77;1.27;;;11.70;89.80;;;;;;4952400;28;20490;-47
2021/12/30 00:07:58;;;;;;;1.77;0.80;;;11.70;89.80;;;;;;4969608;28;20458;-47
2021/12/30 00:10:25;;;;;;;1.13;0.70;;;11.80;89.80;;;;;;4961062;28;20845;-47
2021/12/30 00:12:53;;;;;;;2.07;1.33;;;11.80;89.80;;;;;;4954116;28;20505;-47
2021/12/30 00:15:20;;;;;;;1.10;0.90;;;11.80;89.80;;;;;;4955318;28;20465;-47
2021/12/30 00:17:47;;;;;;;2.60;1.20;;;11.80;89.80;;;;;;4953562;28;20458;-47
2021/12/30 00:20:14;;;;;;;1.67;1.17;;;11.80;89.80;;;;;;4947136;28;20460;-47
2021/12/30 00:22:42;;;;;;;1.70;0.90;;;11.80;89.80;;;;;;4951101;28;21478;-47
2021/12/30 00:25:11;;;;;;;2.20;0.97;;;11.90;89.80;;;;;;4956174;28;20476;-47
2021/12/30 00:27:38;;;;;;;2.30;1.20;;;11.90;89.80;;;;;;4950871;28;20455;-47
2021/12/30 00:30:08;;;;;;;2.53;0.90;;;11.90;89.80;;;;;;4954584;28;20471;-47
2021/12/30 00:32:35;;;;;;;3.00;1.00;;;12.00;89.80;;;;;;4949531;28;20465;-47
2021/12/30 00:35:09;;;;;;;1.10;1.00;;;12.00;89.80;;;;;;4953795;28;20454;-47
2021/12/30 00:37:35;;;;;;;2.10;1.20;;;11.90;89.80;;;;;;4953809;28;20957;-47
2021/12/30 00:40:04;;;;;;;1.40;1.30;;;11.90;89.80;;;;;;4956254;28;20972;-47
2021/12/30 00:42:31;;;;;;;1.67;0.73;;;12.00;89.20;;;;;;4953421;28;20471;-47
2021/12/30 00:44:58;;;;;;;3.83;1.20;;;11.90;89.20;;;;;;4956944;28;20471;-47
2021/12/30 00:47:25;;;;;;;1.00;0.90;;;11.90;89.00;;;;;;4954185;28;20501;-47
2021/12/30 00:49:52;;;;;;;1.70;0.77;;;11.90;88.90;;;;;;4952181;28;21225;-47
2021/12/30 00:52:19;;;;;;;1.50;1.10;;;11.90;88.90;;;;;;4951651;28;20462;-47
2021/12/30 00:54:46;;;;;;;6.00;1.53;;;11.80;89.20;;;;;;4969653;28;20817;-48
2021/12/30 00:57:12;;;;;;;2.30;1.50;;;11.80;89.40;;;;;;4950099;28;20456;-47
2021/12/30 00:59:39;;;;;;;2.20;0.90;;;11.80;89.40;;;;;;4968791;28;20492;-48
2021/12/30 01:02:06;;;;;;;3.70;0.97;;;11.80;89.30;;;;;;4955204;28;20814;-47
2021/12/30 01:04:33;;;;;;;2.60;1.17;;;11.80;89.40;;;;;;4952722;28;21012;-47
2021/12/30 01:07:00;;;;;;;1.37;1.00;;;11.90;88.90;;;;;;4952103;28;20491;-47
2021/12/30 01:09:26;;;;;;;4.03;1.40;;;11.90;88.50;;;;;;4951236;28;20877;-47
2021/12/30 01:11:55;;;;;;;4.93;1.70;;;11.90;88.10;;;;;;4950880;28;20469;-47
2021/12/30 01:14:25;;;;;;;1.93;1.20;;;11.90;88.20;;;;;;4965739;28;21257;-47
2021/12/30 01:16:56;;;;;;;3.53;1.43;;;11.90;87.90;;;;;;4949754;28;20461;-48
2021/12/30 01:19:42;;;;;;;2.23;1.17;;;11.90;88.30;;;;;;4954417;28;20473;-47
2021/12/30 01:22:15;;;;;;;2.47;1.80;;;11.90;87.70;;;;;;4949202;28;20468;-47
2021/12/30 01:24:43;;;;;;;2.40;1.50;;;11.90;87.80;;;;;;4938581;28;20943;-47
2021/12/30 01:27:10;;;;;;;3.20;1.37;;;12.00;87.00;;;;;;4953381;28;21024;-47
2021/12/30 01:29:37;;;;;;;2.30;1.20;;;12.00;86.90;;;;;;4953370;28;20455;-47
2021/12/30 01:32:05;;;;;;;4.00;2.10;;;12.00;87.20;;;;;;4949739;28;20884;-47
2021/12/30 01:34:32;;;;;;;6.17;1.67;;;12.00;86.50;;;;;;4954652;28;20466;-48
2021/12/30 01:37:01;;;;;;;5.37;1.57;;;12.00;86.90;;;;;;4968640;28;20463;-47
2021/12/30 01:39:31;;;;;;;2.50;1.43;;;12.00;86.90;;;;;;4949537;28;20457;-47
2021/12/30 01:41:58;;;;;;;5.63;2.27;;;12.00;86.70;;;;;;4955795;28;21031;-47
2021/12/30 01:44:28;;;;;;;8.67;2.07;;;12.00;86.20;;;;;;4963264;28;20462;-48
2021/12/30 01:46:56;;;;;;;3.33;1.60;;;12.00;86.10;;;;;;4955189;28;20593;-47
2021/12/30 01:49:24;;;;;;;5.93;1.77;;;12.00;86.40;;;;;;4951997;28;20467;-47
2021/12/30 01:51:52;;;;;;;3.67;1.90;;;12.00;86.50;;;;;;4953598;28;20483;-47
2021/12/30 01:54:21;;;;;;;4.30;1.83;;;12.00;86.10;;;;;;4952306;28;20466;-47
2021/12/30 01:56:50;;;;;;;4.13;1.70;;;11.90;86.60;;;;;;4950603;28;20817;-47
2021/12/30 01:59:22;;;;;;;5.70;2.00;;;11.90;87.00;;;;;;4965060;28;20505;-48
2021/12/30 02:01:56;;;;;;;1.90;1.33;;;11.90;86.90;;;;;;4951571;28;20558;-47
2021/12/30 02:04:28;;;;;;;4.20;2.37;;;11.90;86.80;;;;;;4951872;28;20459;-47
2021/12/30 02:06:55;;;;;;;6.13;2.10;;;11.80;87.20;;;;;;4951299;28;21317;-47
2021/12/30 02:09:23;;;;;;;3.87;1.53;;;11.80;87.60;;;;;;4954584;28;20451;-47
2021/12/30 02:11:53;;;;;;;4.27;1.47;;;11.80;87.80;;;;;;4954849;28;21507;-47
2021/12/30 02:14:20;;;;;;;6.70;2.00;;;11.80;87.90;;;;;;4933575;28;20852;-48
2021/12/30 02:16:47;;;;;;;2.93;1.70;;;11.80;87.90;;;;;;4947800;28;20463;-47
2021/12/30 02:19:14;;;;;;;3.83;1.37;;;11.80;86.80;;;;;;4952032;28;20474;-47
2021/12/30 02:21:41;;;;;;;2.80;1.13;;;11.80;86.90;;;;;;4953903;28;20467;-47
2021/12/30 02:24:08;;;;;;;3.97;1.90;;;11.80;87.20;;;;;;4961994;28;20590;-47
2021/12/30 02:26:35;;;;;;;5.10;1.53;;;11.80;87.00;;;;;;4946474;28;20494;-47
2021/12/30 02:29:03;;;;;;;1.30;1.20;;;11.80;86.90;;;;;;4949922;28;20458;-47
2021/12/30 02:31:31;;;;;;;5.33;2.27;;;11.80;86.40;;;;;;4952815;28;20460;-47
2021/12/30 02:33:59;;;;;;;2.67;1.30;;;11.80;86.70;;;;;;4950541;28;20458;-47
2021/12/30 02:36:32;;;;;;;2.80;1.40;;;11.80;87.00;;;;;;4949020;28;20878;-47
2021/12/30 02:39:02;;;;;;;5.10;1.93;;;11.80;86.80;;;;;;4951608;28;20471;-47
2021/12/30 02:41:33;;;;;;;6.83;1.67;;;11.80;86.80;;;;;;4965478;28;20459;-47
2021/12/30 02:44:01;;;;;;;6.37;1.63;;;11.80;87.20;;;;;;4955330;28;20470;-48
2021/12/30 02:46:29;;;;;;;5.53;1.43;;;11.80;87.20;;;;;;4965885;28;20487;-48
2021/12/30 02:48:57;;;;;;;2.80;1.33;;;11.80;87.00;;;;;;4953766;28;20454;-47
2021/12/30 02:51:26;;;;;;;4.40;1.27;;;11.80;87.20;;;;;;4950287;28;20839;-48
2021/12/30 02:53:54;;;;;;;3.73;1.53;;;11.80;87.50;;;;;;4966360;28;20461;-47
2021/12/30 02:56:22;;;;;;;5.73;1.50;;;11.70;87.60;;;;;;4947763;28;20895;-47
2021/12/30 02:58:49;;;;;;;5.13;2.40;;;11.80;88.00;;;;;;4956088;28;20541;-47
2021/12/30 03:01:23;;;;;;;5.87;1.50;;;11.80;88.00;;;;;;4951682;28;20447;-47
2021/12/30 03:03:51;;;;;;;6.33;2.27;;;11.80;87.50;;;;;;4963651;28;20468;-47
2021/12/30 03:06:17;;;;;;;3.23;1.60;;;11.80;87.90;;;;;;4948764;28;20856;-47
2021/12/30 03:08:46;;;;;;;4.60;2.30;;;11.80;87.90;;;;;;4968812;28;20461;-47
2021/12/30 03:11:14;;;;;;;4.00;2.37;;;11.70;88.20;;;;;;4949303;28;20949;-47
2021/12/30 03:13:44;;;;;;;3.33;1.80;;;11.70;88.40;;;;;;4952331;28;20928;-47
2021/12/30 03:16:19;;;;;;;4.00;1.90;;;11.70;88.50;;;;;;4966908;28;20450;-48
2021/12/30 03:18:49;;;;;;;5.93;2.00;;;11.70;88.70;;;;;;4967683;28;21030;-47
2021/12/30 03:21:20;;;;;;;2.13;1.23;;;11.70;88.60;;;;;;4957747;28;20457;-47
2021/12/30 03:23:48;;;;;;;4.10;1.40;;;11.70;88.70;;;;;;4950567;28;20487;-48
2021/12/30 03:26:15;;;;;;;2.83;1.43;;;11.70;88.70;;;;;;4953212;28;20471;-48
2021/12/30 03:28:43;;;;;;;1.43;1.00;;;11.70;88.80;;;;;;4951118;28;20450;-47
2021/12/30 03:31:12;;;;;;;4.33;1.27;;;11.60;88.80;;;;;;4955403;28;20454;-47
2021/12/30 03:33:40;;;;;;;1.73;1.17;;;11.60;88.80;;;;;;4949951;28;20467;-48
2021/12/30 03:36:08;;;;;;;5.53;1.73;;;11.60;88.90;;;;;;4951122;28;20824;-48
2021/12/30 03:38:42;;;;;;;7.93;1.33;;;11.60;89.00;;;;;;4962525;28;20450;-47
2021/12/30 03:41:12;;;;;;;3.63;1.67;;;11.60;89.10;;;;;;4974317;28;20946;-47
2021/12/30 03:43:39;;;;;;;6.90;1.93;;;11.50;89.30;;;;;;4955494;29;20482;-46
2021/12/30 03:46:07;;;;;;;7.67;1.57;;;11.50;89.40;;;;;;4959421;28;20451;-44
2021/12/30 03:48:40;;;;;;;6.67;1.63;;;11.50;89.40;;;;;;4950539;28;20497;-44
2021/12/30 03:51:11;;;;;;;6.57;2.03;;;11.50;89.50;;;;;;4957779;28;20450;-44
2021/12/30 03:53:41;;;;;;;3.87;2.73;;;11.50;89.70;;;;;;4944677;28;20459;-44
2021/12/30 03:56:10;;;;;;;4.60;1.80;;;11.50;89.60;;;;;;4949845;28;20463;-44
2021/12/30 03:58:39;;;;;;;4.40;1.90;;;11.50;89.70;;;;;;4950349;28;20461;-44
2021/12/30 04:01:08;;;;;;;3.50;1.83;;;11.50;89.80;;;;;;4948807;28;20458;-44
2021/12/30 04:03:36;;;;;;;2.73;1.50;;;11.50;89.80;;;;;;4947753;28;20450;-44
2021/12/30 04:06:03;;;;;;;6.03;1.97;;;11.50;89.80;;;;;;4955589;28;20459;-44
2021/12/30 04:08:30;;;;;;;4.60;1.93;;;11.50;89.80;;;;;;4949799;28;20486;-44
2021/12/30 04:10:58;;;;;;;5.37;1.90;;;11.50;89.80;;;;;;4964804;28;20462;-44
2021/12/30 04:13:25;;;;;;;3.77;1.80;;;11.50;89.80;;;;;;4946962;28;20996;-44
2021/12/30 04:15:52;;;;;;;5.93;1.83;;;11.50;89.80;;;;;;4951908;28;20459;-44
2021/12/30 04:18:19;;;;;;;3.40;1.63;;;11.50;89.80;;;;;;4953357;28;20964;-44
2021/12/30 04:20:46;;;;;;;4.17;1.77;;;11.50;89.80;;;;;;4949400;28;20454;-44
2021/12/30 04:23:15;;;;;;;3.63;2.93;;;11.50;89.80;;;;;;4946526;28;20509;-44
2021/12/30 04:25:42;;;;;;;6.97;2.03;;;11.50;89.80;;;;;;4964670;28;20469;-44
2021/12/30 04:28:10;;;;;;;3.90;3.20;;;11.40;89.80;;;;;;4952423;28;21019;-44
2021/12/30 04:30:37;;;;;;;4.67;1.97;;;11.40;89.80;;;;;;4952436;28;20488;-44
2021/12/30 04:33:04;;;;;;;5.00;1.67;;;11.40;89.80;;;;;;4933425;28;20467;-44
2021/12/30 04:35:31;;;;;;;7.63;3.37;;;11.40;89.80;;;;;;4946844;28;20471;-44
2021/12/30 04:37:58;;;;;;;3.93;1.40;;;11.40;89.80;;;;;;4954759;28;20485;-44
2021/12/30 04:40:27;;;;;;;3.70;1.13;;;11.40;89.80;;;;;;4967320;28;20470;-44
2021/12/30 04:42:54;;;;;;;5.43;2.23;;;11.40;89.80;;;;;;4953759;28;20475;-44
2021/12/30 04:45:21;;;;;;;3.20;1.53;;;11.40;89.80;;;;;;4953874;28;20478;-44
2021/12/30 04:47:48;;;;;;;3.07;1.67;;;11.40;89.80;;;;;;4950662;28;20502;-44
2021/12/30 04:50:16;;;;;;;8.47;2.07;;;11.40;89.80;;;;;;4965839;28;20566;-44
2021/12/30 04:52:43;;;;;;;7.70;2.20;;;11.40;89.80;;;;;;4951696;28;20452;-44
2021/12/30 04:55:10;;;;;;;8.90;2.20;;;11.40;89.80;;;;;;4953380;28;20903;-44
2021/12/30 04:57:37;;;;;;;3.23;1.23;;;11.30;89.80;;;;;;4965040;28;20588;-44
2021/12/30 05:00:08;;;;;;;4.77;2.37;;;11.30;89.80;;;;;;4952265;28;20472;-44
2021/12/30 05:02:55;;;;;;;3.33;1.63;;;11.30;89.80;;;;;;4951525;28;20553;-44
2021/12/30 05:05:21;;;;;;;2.60;1.50;;;11.30;89.80;;;;;;4949950;28;20498;-44
2021/12/30 05:07:48;;;;;;;4.33;2.60;;;11.30;89.80;;;;;;4951555;28;20571;-44
2021/12/30 05:10:15;;;;;;;4.20;1.97;;;11.30;89.80;;;;;;4951198;28;20458;-44
2021/12/30 05:12:42;;;;;;;5.67;2.00;;;11.30;89.80;;;;;;4951581;28;20463;-44
2021/12/30 05:15:09;;;;;;;2.47;1.67;;;11.30;89.80;;;;;;4954633;28;20451;-44
2021/12/30 05:17:36;;;;;;;3.93;2.20;;;11.30;89.80;;;;;;4951389;28;20473;-44
2021/12/30 05:20:05;;;;;;;6.93;2.47;;;11.30;89.80;;;;;;4950672;28;20469;-43
2021/12/30 05:22:31;;;;;;;3.43;1.73;;;11.30;89.80;;;;;;4954466;28;20988;-43
2021/12/30 05:24:58;;;;;;;3.80;1.93;;;11.30;89.80;;;;;;4951950;28;20459;-44
2021/12/30 05:27:25;;;;;;;3.57;1.80;;;11.30;89.80;;;;;;4952566;28;20504;-44
2021/12/30 05:29:52;;;;;;;6.00;1.60;;;11.30;89.80;;;;;;4955507;28;20941;-44
2021/12/30 05:32:18;;;;;;;3.70;2.17;;;11.30;89.80;;;;;;4961772;28;20777;-44
2021/12/30 05:34:45;;;;;;;8.17;1.83;;;11.30;89.80;;;;;;4954674;28;20450;-44
2021/12/30 05:37:12;;;;;;;4.67;2.17;;;11.30;89.80;;;;;;4952263;28;20821;-44
2021/12/30 05:39:41;;;;;;;6.10;2.17;;;11.30;89.80;;;;;;4955786;28;20455;-44
2021/12/30 05:42:08;;;;;;;3.50;2.50;;;11.20;89.80;;;;;;4966278;28;20937;-44
2021/12/30 05:44:35;;;;;;;2.70;2.37;;;11.30;89.80;;;;;;4950880;28;20980;-44
2021/12/30 05:47:03;;;;;;;5.13;2.43;;;11.30;89.80;;;;;;4952003;28;20491;-44
2021/12/30 05:49:30;;;;;;;4.17;2.63;;;11.30;89.80;;;;;;4951234;28;21025;-43
2021/12/30 05:51:57;;;;;;;4.37;2.30;;;11.30;89.80;;;;;;4948601;28;20501;-43
2021/12/30 05:54:24;;;;;;;5.47;2.77;;;11.30;89.80;;;;;;4949273;28;20829;-44
2021/12/30 05:56:52;;;;;;;5.43;2.53;;;11.30;89.80;;;;;;4951053;28;20507;-44
2021/12/30 05:59:19;;;;;;;5.90;2.60;;;11.30;89.80;;;;;;4949957;28;20853;-44
2021/12/30 06:01:46;;;;;;;5.90;3.43;;;11.30;89.80;;;;;;4950845;28;20465;-44
2021/12/30 06:04:13;;;;;;;5.60;4.50;;;11.30;89.80;;;;;;4950334;28;20829;-44
2021/12/30 06:06:40;;;;;;;5.00;3.97;;;11.30;89.80;;;;;;4967680;28;20464;-44
2021/12/30 06:09:07;;;;;;;7.33;4.40;;;11.30;89.80;;;;;;4950922;28;20518;-44
2021/12/30 06:11:34;;;;;;;9.40;4.37;;;11.30;89.80;;;;;;4950391;28;20803;-44
2021/12/30 06:14:00;;;;;;;10.97;4.93;;;11.30;89.80;;;;;;4953786;28;20473;-44
2021/12/30 06:16:27;;;;;;;4.17;3.40;;;11.30;89.80;;;;;;4961025;28;20463;-44
2021/12/30 06:18:57;;;;;;;9.57;4.17;;;11.30;89.80;;;;;;4951169;28;20478;-43
2021/12/30 06:21:23;;;;;;;7.53;4.60;;;11.30;89.80;;;;;;4950833;28;20466;-43
2021/12/30 06:23:51;;;;;;;5.40;4.07;;;11.30;89.80;;;;;;4949754;28;20482;-44
2021/12/30 06:26:18;;;;;;;4.73;3.87;;;11.30;89.80;;;;;;4950426;28;20526;-44
2021/12/30 06:28:44;;;;;;;8.27;4.30;;;11.30;89.80;;;;;;4964241;28;20505;-44
2021/12/30 06:31:11;;;;;;;7.50;4.40;;;11.30;89.80;;;;;;4950903;28;20473;-44
2021/12/30 06:33:39;;;;;;;12.23;4.53;;;11.30;89.80;;;;;;4947685;28;21110;-44
2021/12/30 06:36:06;;;;;;;6.20;5.10;;;11.30;89.80;;;;;;4954907;28;20879;-44
2021/12/30 06:38:33;;;;;;;8.00;4.20;;;11.30;89.80;;;;;;4949994;28;21367;-44
2021/12/30 06:41:00;;;;;;;7.70;4.73;;;11.30;89.80;;;;;;4964969;28;20467;-44
2021/12/30 06:43:27;;;;;;;6.03;4.33;;;11.40;89.80;;;;;;4951065;28;20466;-44
2021/12/30 06:45:54;;;;;;;6.50;3.47;;;11.40;89.80;;;;;;4962536;28;20474;-44
2021/12/30 06:48:22;;;;;;;5.13;3.30;;;11.40;89.80;;;;;;4958945;28;20494;-47
2021/12/30 06:50:52;;;;;;;8.20;4.03;;;11.30;89.80;;;;;;4962713;28;20475;-50
2021/12/30 06:53:23;;;;;;;3.63;2.73;;;11.40;89.80;;;;;;4981029;28;20498;-47
2021/12/30 06:55:51;;;;;;;4.93;3.27;;;11.40;89.80;;;;;;4978305;28;20490;-47
2021/12/30 06:58:19;;;;;;;3.70;2.70;;;11.40;89.80;;;;;;4965900;28;20458;-47
2021/12/30 07:00:48;;;;;;;3.73;1.87;;;11.40;89.80;;;;;;4959712;28;20474;-47
2021/12/30 07:03:15;;;;;;;2.50;2.00;;;11.40;89.80;;;;;;4969167;28;20458;-47
2021/12/30 07:05:42;;;;;;;1.67;1.50;;;11.50;89.80;;;;;;4980738;28;20471;-47
2021/12/30 07:08:09;;;;;;;3.20;3.00;;;11.50;89.80;;;;;;4968102;28;20594;-46
2021/12/30 07:10:36;;;;;;;0.67;0.67;;;11.60;89.80;;;;;;4961090;28;20547;-47
2021/12/30 07:13:03;;;;;;;1.00;0.90;;;11.80;89.80;;;;;;4978907;28;20534;-47
2021/12/30 07:15:33;;;;;;;0.40;0.40;;;12.00;89.80;;;;;;4977501;28;20936;-47
2021/12/30 07:18:01;;;;;;;0.50;0.50;;;12.20;89.80;;;;;;4962498;28;20471;-47
2021/12/30 07:20:28;;;;;;;0.70;0.60;;;12.30;89.80;;;;;;4945049;28;20455;-46
2021/12/30 07:22:55;;;;;;;0.60;0.40;;;12.50;89.80;;;;;;4965181;28;20518;-46
2021/12/30 07:25:22;;;;;;;0.70;0.60;;;12.70;89.80;;;;;;4964212;28;20479;-47
2021/12/30 07:27:52;;;;;;;1.23;0.50;;;12.70;89.80;;;;;;4963486;28;20522;-47
2021/12/30 07:30:21;;;;;;;1.17;0.57;;;12.90;89.80;;;;;;4967851;28;20461;-47
2021/12/30 07:32:49;;;;;;;1.23;0.40;;;12.90;89.80;;;;;;4979474;28;20831;-47
2021/12/30 07:35:18;;;;;;;0.50;0.50;;;13.00;89.80;;;;;;4977949;28;20495;-47
2021/12/30 07:37:45;;;;;;;0.60;0.40;;;13.10;89.80;;;;;;4961561;28;20522;-47
2021/12/30 07:40:12;;;;;;;0.60;0.53;;;13.20;89.80;;;;;;4965922;28;20462;-47
2021/12/30 07:42:41;;;;;;;0.50;0.43;;;13.20;89.80;;;;;;4963392;28;20972;-47
2021/12/30 07:45:10;;;;;;;0.40;0.30;;;13.30;89.80;;;;;;4961677;28;20467;-47
2021/12/30 07:47:38;;;;;;;0.40;0.33;;;13.40;89.80;;;;;;4965308;28;20491;-48
2021/12/30 07:50:05;;;;;;;0.67;0.57;;;13.40;89.80;;;;;;4976403;28;20564;-47
2021/12/30 07:52:34;;;;;;;0.77;0.40;;;13.50;89.80;;;;;;4964999;28;20554;-47
2021/12/30 07:55:01;;;;;;;0.50;0.50;;;13.60;89.80;;;;;;4959139;28;20466;-47
2021/12/30 07:57:29;;;;;;;0.90;0.60;;;13.60;89.80;;;;;;4960640;28;20568;-47
2021/12/30 07:59:56;;;;;;;1.53;0.50;;;13.70;89.80;;;;;;4964492;28;20522;-47
2021/12/30 08:02:23;;;;;;;1.67;0.57;;;13.70;89.80;;;;;;4964759;28;20772;-47
2021/12/30 08:04:50;;;;;;;0.63;0.53;;;13.80;89.80;;;;;;4964642;28;20497;-47
2021/12/30 08:07:21;;;;;;;2.80;1.00;;;13.80;89.80;;;;;;4964096;28;20466;-47
2021/12/30 08:09:48;;;;;;;0.97;0.97;;;13.80;89.80;;;;;;4964968;28;20879;-47
2021/12/30 08:12:15;;;;;;;1.73;0.70;;;13.80;89.80;;;;;;4965812;28;20482;-47
2021/12/30 08:14:44;;;;;;;1.30;0.60;;;13.80;89.80;;;;;;4963860;28;20862;-47
2021/12/30 08:17:11;;;;;;;0.40;0.40;;;13.80;89.80;;;;;;4977088;28;20477;-47
2021/12/30 08:19:38;;;;;;;1.37;0.60;;;13.80;89.80;;;;;;4962050;28;20693;-47
2021/12/30 08:22:05;;;;;;;0.50;0.50;;;13.70;89.80;;;;;;4975156;28;20475;-47
2021/12/30 08:24:32;;;;;;;0.70;0.67;;;13.80;89.80;;;;;;4970305;28;21190;-47
2021/12/30 08:27:14;;;;;;;0.90;0.90;;;13.80;89.80;;;;;;4969188;28;20542;-47
2021/12/30 08:29:42;;;;;;;0.77;0.77;;;13.80;89.80;;;;;;4966060;28;20550;-47
2021/12/30 08:32:12;;;;;;;0.70;0.50;;;13.80;89.80;;;;;;4966914;28;20455;-47
2021/12/30 08:34:40;;;;;;;0.40;0.40;;;13.80;89.80;;;;;;4963207;28;20459;-47
2021/12/30 08:37:08;;;;;;;0.50;0.50;;;13.80;89.80;;;;;;4963889;28;20534;-47
2021/12/30 08:39:36;;;;;;;0.73;0.73;;;13.80;89.80;;;;;;4962581;28;20477;-47
2021/12/30 08:42:05;;;;;;;2.00;0.70;;;13.80;89.80;;;;;;4966157;28;20844;-47
2021/12/30 08:44:32;;;;;;;0.50;0.50;;;13.80;89.80;;;;;;4972748;28;20546;-47
2021/12/30 08:46:59;;;;;;;0.50;0.50;;;13.80;89.80;;;;;;4967281;28;20542;-47
2021/12/30 08:49:26;;;;;;;0.90;0.90;;;13.80;89.80;;;;;;4965537;28;20499;-47
2021/12/30 08:51:53;;;;;;;0.90;0.90;;;13.90;89.80;;;;;;4946529;28;20463;-47
2021/12/30 08:54:20;;;;;;;0.43;0.43;;;13.90;89.80;;;;;;4965122;28;20466;-47
2021/12/30 08:56:46;;;;;;;0.93;0.70;;;13.90;89.80;;;;;;4962725;28;20848;-47
2021/12/30 08:59:14;;;;;;;0.83;0.60;;;13.90;89.80;;;;;;4966672;28;20860;-47
2021/12/30 09:01:42;;;;;;;0.73;0.50;;;13.90;89.80;;;;;;4963891;28;20518;-47
2021/12/30 09:04:08;;;;;;;0.97;0.40;;;13.90;89.80;;;;;;4967904;28;20490;-47
2021/12/30 09:06:35;;;;;;;1.63;0.40;;;14.00;89.80;;;;;;4977851;28;20551;-47
2021/12/30 09:09:02;;;;;;;0.57;0.57;;;14.00;89.80;;;;;;4964634;28;20479;-47
2021/12/30 09:11:29;;;;;;;0.50;0.50;;;14.00;89.80;;;;;;4961665;28;20471;-47
2021/12/30 09:13:56;;;;;;;0.60;0.40;;;14.00;89.80;;;;;;4962679;28;20466;-47
2021/12/30 09:16:22;;;;;;;0.50;0.50;;;14.00;89.80;;;;;;4963602;28;20475;-47
2021/12/30 09:18:49;;;;;;;0.43;0.43;;;14.00;89.80;;;;;;4962793;28;20554;-47
2021/12/30 09:21:16;;;;;;;0.73;0.40;;;14.00;89.80;;;;;;4958715;28;20471;-47
2021/12/30 09:23:43;;;;;;;0.40;0.40;;;14.00;89.80;;;;;;4964967;28;20491;-47
2021/12/30 09:26:10;;;;;;;0.40;0.30;;;14.10;89.80;;;;;;4968177;28;20466;-47
2021/12/30 09:28:37;;;;;;;0.90;0.50;;;14.10;89.80;;;;;;4962473;28;20553;-47
2021/12/30 09:31:03;;;;;;;1.33;0.50;;;14.20;89.80;;;;;;4975533;28;20469;-47
2021/12/30 09:33:30;;;;;;;1.33;0.60;;;14.20;89.80;;;;;;4972019;28;20467;-47
2021/12/30 09:36:01;;;;;;;0.40;0.33;;;14.20;89.80;;;;;;4976225;28;21052;-47
2021/12/30 09:38:28;;;;;;;6.27;1.00;;;14.30;89.80;;;;;;4979063;28;20478;-46
2021/12/30 09:40:55;;;;;;;2.93;0.83;;;14.30;89.80;;;;;;4965999;28;20471;-46
2021/12/30 09:43:23;;;;;;;2.83;0.50;;;14.30;89.80;;;;;;4966852;28;20546;-46
2021/12/30 09:45:50;;;;;;;0.50;0.37;;;14.40;89.80;;;;;;4978799;28;21383;-46
2021/12/30 09:48:17;;;;;;;1.27;0.53;;;14.50;89.80;;;;;;4960704;28;20593;-46
2021/12/30 09:50:51;;;;;;;1999.90;999.90;;;14.50;89.80;;;;;;4963587;28;20465;-46
2021/12/30 09:53:22;;;;;;;1210.07;251.27;;;14.60;89.80;;;;;;4961132;28;20473;-46
2021/12/30 09:55:51;;;;;;;455.03;80.77;;;14.60;89.80;;;;;;4958130;28;20968;-47
2021/12/30 09:58:19;;;;;;;118.70;21.90;;;14.60;89.80;;;;;;4962194;28;20566;-46
2021/12/30 10:00:46;;;;;;;2.50;0.93;;;14.60;89.80;;;;;;4963341;28;20497;-47
2021/12/30 10:03:14;;;;;;;0.87;0.40;;;14.70;89.80;;;;;;4961987;28;20467;-46
2021/12/30 10:05:41;;;;;;;5.43;1.03;;;14.80;89.80;;;;;;4960091;28;20465;-46
2021/12/30 10:08:15;;;;;;;5.37;1.30;;;14.80;89.80;;;;;;4960566;28;21115;-46
2021/12/30 10:10:49;;;;;;;1.73;0.33;;;14.90;89.80;;;;;;4966285;28;20554;-46
2021/12/30 10:13:21;;;;;;;0.60;0.33;;;14.90;89.80;;;;;;4968288;28;20467;-46
2021/12/30 10:15:53;;;;;;;0.30;0.20;;;15.00;89.80;;;;;;4979810;28;20494;-47
2021/12/30 10:18:23;;;;;;;3.30;1.00;;;15.10;89.60;;;;;;4967792;28;20494;-46
2021/12/30 10:20:52;;;;;;;59.20;12.13;;;15.20;89.10;;;;;;4961788;28;20459;-47
2021/12/30 10:23:22;;;;;;;1.73;1.23;;;15.20;89.30;;;;;;4965039;28;21288;-46
2021/12/30 10:25:55;;;;;;;0.97;0.33;;;15.30;88.90;;;;;;4967414;28;20555;-46
2021/12/30 10:28:31;;;;;;;10.17;3.23;;;15.30;88.50;;;;;;4957203;28;21024;-47
2021/12/30 10:31:10;;;;;;;5.53;4.87;;;15.40;88.40;;;;;;4961569;28;20518;-47
2021/12/30 10:34:06;;;;;;;3.40;2.53;;;15.40;88.60;;;;;;4966976;28;20477;-46
2021/12/30 10:36:34;;;;;;;5.23;1.00;;;15.40;87.70;;;;;;4977046;28;20459;-47
2021/12/30 10:39:39;;;;;;;1.37;0.60;;;15.50;87.50;;;;;;4979006;28;20554;-46
2021/12/30 10:42:06;;;;;;;0.70;0.50;;;15.50;87.70;;;;;;4941131;28;20475;-46
2021/12/30 10:44:57;;;;;;;0.43;0.43;;;15.50;88.10;;;;;;4979530;28;20892;-47
2021/12/30 10:47:29;;;;;;;0.87;0.50;;;15.60;87.40;;;;;;4964261;28;21015;-46
2021/12/30 10:50:11;;;;;;;0.40;0.40;;;15.70;87.20;;;;;;4963220;28;20519;-46
2021/12/30 10:52:50;;;;;;;2.33;0.43;;;15.70;87.00;;;;;;4964201;28;20855;-46
2021/12/30 10:55:19;;;;;;;0.40;0.30;;;15.70;87.20;;;;;;4980384;28;20498;-48
2021/12/30 10:57:46;;;;;;;2.20;0.50;;;15.70;86.70;;;;;;4962689;28;20494;-46
2021/12/30 11:00:32;;;;;;;0.40;0.30;;;15.70;86.60;;;;;;4960101;28;20469;-46
2021/12/30 11:03:27;;;;;;;1.77;0.30;;;15.70;86.80;;;;;;4981583;28;20457;-47
2021/12/30 11:06:14;;;;;;;0.80;0.40;;;15.70;86.60;;;;;;4978776;28;20554;-46
2021/12/30 11:08:46;;;;;;;0.30;0.20;;;15.80;86.30;;;;;;4968851;28;20641;-46
2021/12/30 11:11:28;;;;;;;0.37;0.33;;;15.80;86.50;;;;;;4967287;28;20539;-46
2021/12/30 11:14:03;;;;;;;0.50;0.40;;;15.90;86.00;;;;;;4966417;28;20456;-46
2021/12/30 11:16:30;;;;;;;0.40;0.33;;;15.90;86.30;;;;;;4967719;28;20552;-46
2021/12/30 11:18:59;;;;;;;0.50;0.33;;;15.90;86.10;;;;;;4961784;28;20524;-47
2021/12/30 11:21:40;;;;;;;0.60;0.33;;;16.00;86.10;;;;;;4965110;28;20525;-47
2021/12/30 11:24:10;;;;;;;0.50;0.40;;;16.00;86.10;;;;;;4963732;28;20509;-46
2021/12/30 11:26:37;;;;;;;2.10;1.87;;;16.10;85.30;;;;;;4962038;28;20558;-46
2021/12/30 11:29:06;;;;;;;1.40;1.30;;;16.00;85.80;;;;;;4962855;28;21079;-46
2021/12/30 11:31:33;;;;;;;0.80;0.60;;;16.10;85.80;;;;;;4962720;28;20819;-46
2021/12/30 11:34:04;;;;;;;0.50;0.50;;;16.10;85.50;;;;;;4984664;28;20498;-46
2021/12/30 11:36:33;;;;;;;0.50;0.30;;;16.20;85.40;;;;;;4967172;28;20545;-46
2021/12/30 11:39:10;;;;;;;0.30;0.30;;;16.20;84.90;;;;;;4969589;28;20451;-46
2021/12/30 11:41:38;;;;;;;0.83;0.47;;;16.20;85.40;;;;;;4972222;28;20493;-46
2021/12/30 11:44:05;;;;;;;0.40;0.40;;;16.20;86.20;;;;;;4965956;28;20469;-46
2021/12/30 11:46:45;;;;;;;0.73;0.60;;;16.20;85.20;;;;;;4967466;28;20543;-46
2021/12/30 11:49:16;;;;;;;0.93;0.40;;;16.30;85.10;;;;;;4968661;28;20498;-46
2021/12/30 11:51:52;;;;;;;0.40;0.30;;;16.30;84.80;;;;;;4963488;28;20496;-46
2021/12/30 11:54:39;;;;;;;0.43;0.43;;;16.30;85.00;;;;;;4953656;28;20473;-46
2021/12/30 11:57:32;;;;;;;2.07;0.80;;;16.40;85.00;;;;;;4967821;28;20524;-46
2021/12/30 12:00:20;;;;;;;1.37;0.63;;;16.40;84.60;;;;;;4966568;28;20471;-46
2021/12/30 12:02:47;;;;;;;0.57;0.57;;;16.40;84.60;;;;;;4967086;28;20457;-46
2021/12/30 12:05:42;;;;;;;0.80;0.67;;;16.50;84.20;;;;;;4969773;28;20466;-46
2021/12/30 12:08:11;;;;;;;2.73;2.27;;;16.50;83.90;;;;;;4974077;28;20458;-46
2021/12/30 12:10:40;;;;;;;1.37;0.40;;;16.60;84.00;;;;;;4962833;28;20494;-46
2021/12/30 12:13:32;;;;;;;0.60;0.50;;;16.60;83.60;;;;;;4988229;28;20490;-46
2021/12/30 12:16:00;;;;;;;1.17;0.40;;;16.60;83.60;;;;;;4967289;28;20507;-46
2021/12/30 12:18:27;;;;;;;0.40;0.30;;;16.60;84.20;;;;;;4981077;28;20541;-46
2021/12/30 12:20:56;;;;;;;0.50;0.50;;;16.70;83.10;;;;;;4971185;28;20897;-46
2021/12/30 12:23:45;;;;;;;0.53;0.53;;;16.70;83.50;;;;;;4969938;28;20896;-46
2021/12/30 12:26:15;;;;;;;1.87;0.50;;;16.70;83.40;;;;;;4957129;28;20486;-46
2021/12/30 12:28:47;;;;;;;0.37;0.30;;;16.70;83.50;;;;;;4964074;28;20468;-46
2021/12/30 12:31:14;;;;;;;0.60;0.50;;;16.80;82.60;;;;;;4971644;28;20463;-46
2021/12/30 12:33:42;;;;;;;0.50;0.50;;;16.80;83.10;;;;;;4966865;28;20459;-46
2021/12/30 12:36:18;;;;;;;0.43;0.40;;;16.80;82.30;;;;;;4970054;28;20478;-46
2021/12/30 12:38:47;;;;;;;0.50;0.30;;;16.80;83.10;;;;;;4964128;28;20885;-46
2021/12/30 12:41:31;;;;;;;1.33;0.40;;;16.80;82.80;;;;;;4967155;28;20471;-45
2021/12/30 12:44:05;;;;;;;0.60;0.50;;;16.80;82.50;;;;;;4966197;28;20463;-46
2021/12/30 12:46:50;;;;;;;0.43;0.43;;;16.80;82.70;;;;;;4965845;28;20491;-46
2021/12/30 12:49:32;;;;;;;0.50;0.50;;;16.80;83.00;;;;;;4964698;28;20502;-46
2021/12/30 12:52:00;;;;;;;1.37;0.30;;;16.80;82.00;;;;;;4969005;28;20523;-47
2021/12/30 12:54:38;;;;;;;0.50;0.40;;;16.80;81.90;;;;;;4960675;28;20459;-47
2021/12/30 12:57:08;;;;;;;0.40;0.40;;;16.70;82.10;;;;;;4962412;28;20601;-46